Time;durP1;ratioP1;P1;durP2;ratioP2;P2;SDS_P1;SDS_P2;PMS_P1;PMS_P2;Temp;Humidity;BMP_temperature;BMP_pressure;BME280_temperature;BME280_humidity;BME280_pressure;Samples;Min_cycle;Max_cycle;Signal;HPM_P1;HPM_P2
2022/01/16 00:01:34;;;;;;;19.97;9.77;;;3.90;99.90;;;;;;5059276;28;20203;-68
2022/01/16 00:04:09;;;;;;;20.30;10.20;;;3.90;99.90;;;;;;5058834;28;20303;-68
2022/01/16 00:06:38;;;;;;;21.90;10.83;;;3.90;99.90;;;;;;5058486;28;20217;-68
2022/01/16 00:09:05;;;;;;;21.43;9.97;;;3.80;99.90;;;;;;5053847;28;20208;-68
2022/01/16 00:11:32;;;;;;;23.57;10.70;;;3.80;99.90;;;;;;5057805;28;20209;-68
2022/01/16 00:13:59;;;;;;;22.57;10.87;;;3.80;99.90;;;;;;5057344;28;20582;-68
2022/01/16 00:16:26;;;;;;;21.87;10.27;;;3.80;99.90;;;;;;5051726;28;20212;-68
2022/01/16 00:18:52;;;;;;;23.13;10.97;;;3.80;99.90;;;;;;5057101;28;20199;-68
2022/01/16 00:21:21;;;;;;;22.40;10.90;;;3.90;99.90;;;;;;5061857;28;20202;-68
2022/01/16 00:23:49;;;;;;;19.73;10.27;;;3.90;99.90;;;;;;5057702;28;20217;-68
2022/01/16 00:26:17;;;;;;;21.60;10.43;;;3.80;99.90;;;;;;5057642;28;20225;-68
2022/01/16 00:28:44;;;;;;;24.07;10.50;;;3.80;99.90;;;;;;5062614;28;20194;-71
2022/01/16 00:31:12;;;;;;;20.30;10.40;;;3.70;99.90;;;;;;5063673;28;20202;-73
2022/01/16 00:33:39;;;;;;;22.60;10.40;;;3.70;99.90;;;;;;5061440;28;20772;-68
2022/01/16 00:36:06;;;;;;;22.03;10.63;;;3.80;99.90;;;;;;5060022;28;20195;-68
2022/01/16 00:38:34;;;;;;;22.57;10.60;;;3.80;99.90;;;;;;5060216;28;20196;-68
2022/01/16 00:41:01;;;;;;;20.27;10.17;;;3.70;99.90;;;;;;5060067;28;20210;-68
2022/01/16 00:43:27;;;;;;;20.17;9.73;;;3.70;99.90;;;;;;5056677;28;20319;-68
2022/01/16 00:45:54;;;;;;;19.07;9.50;;;3.80;99.90;;;;;;5064206;28;20214;-68
2022/01/16 00:48:21;;;;;;;18.20;9.43;;;3.70;99.90;;;;;;5063690;28;20201;-68
2022/01/16 00:50:48;;;;;;;21.53;9.27;;;3.70;99.90;;;;;;5052882;28;20197;-68
2022/01/16 00:53:15;;;;;;;18.20;8.30;;;3.70;99.90;;;;;;5052997;28;20221;-72
2022/01/16 00:55:41;;;;;;;14.70;7.23;;;3.80;99.90;;;;;;5063723;28;20207;-71
2022/01/16 00:58:08;;;;;;;17.87;8.17;;;3.80;99.90;;;;;;5061909;28;20190;-71
2022/01/16 01:00:34;;;;;;;12.17;6.40;;;3.80;99.90;;;;;;5064000;28;20195;-71
2022/01/16 01:03:02;;;;;;;18.20;8.27;;;3.80;99.90;;;;;;5055804;28;20669;-72
2022/01/16 01:05:29;;;;;;;14.87;7.13;;;3.80;99.90;;;;;;5061414;28;20186;-73
2022/01/16 01:07:56;;;;;;;13.80;6.97;;;3.80;99.90;;;;;;5053540;28;20199;-71
2022/01/16 01:10:33;;;;;;;14.13;7.33;;;3.80;99.90;;;;;;5059485;28;20657;-73
2022/01/16 01:13:11;;;;;;;13.60;6.77;;;3.80;99.90;;;;;;5058516;28;20209;-73
2022/01/16 01:15:49;;;;;;;14.93;7.70;;;3.80;99.90;;;;;;5063323;28;20379;-75
2022/01/16 01:18:19;;;;;;;12.47;6.33;;;3.80;99.90;;;;;;5062919;28;20218;-71
2022/01/16 01:20:49;;;;;;;14.03;6.83;;;3.90;99.90;;;;;;5060781;28;20210;-71
2022/01/16 01:23:16;;;;;;;15.77;7.57;;;3.90;99.90;;;;;;5066395;28;20231;-71
2022/01/16 01:25:43;;;;;;;15.73;8.20;;;3.90;99.90;;;;;;5053469;28;20196;-71
2022/01/16 01:28:11;;;;;;;15.53;7.47;;;3.90;99.90;;;;;;5072356;28;20205;-73
2022/01/16 01:30:40;;;;;;;18.73;7.87;;;3.90;99.90;;;;;;5054120;28;20237;-68
2022/01/16 01:33:07;;;;;;;16.90;8.03;;;3.90;99.90;;;;;;5053612;28;20192;-68
2022/01/16 01:35:38;;;;;;;16.63;8.00;;;3.80;99.90;;;;;;5051163;28;20189;-68
2022/01/16 01:38:11;;;;;;;15.27;7.97;;;3.80;99.90;;;;;;5063267;28;20238;-68
2022/01/16 01:40:39;;;;;;;20.77;10.00;;;3.70;99.90;;;;;;5073637;28;20248;-68
2022/01/16 01:51:20;;;;;;;30.47;12.30;;;3.60;99.90;;;;;;5058350;28;20212;-68
2022/01/16 01:53:50;;;;;;;34.53;13.57;;;3.60;99.90;;;;;;5061230;28;20225;-68
2022/01/16 01:56:18;;;;;;;33.60;12.67;;;3.60;99.90;;;;;;5080851;28;20277;-68
2022/01/16 01:58:45;;;;;;;35.83;13.30;;;3.60;99.90;;;;;;5053749;28;20216;-68
2022/01/16 02:01:12;;;;;;;32.97;12.97;;;3.50;99.90;;;;;;5055921;28;20196;-68
2022/01/16 02:06:17;;;;;;;36.63;14.10;;;3.40;99.90;;;;;;5056149;28;20208;-68
2022/01/16 02:08:47;;;;;;;29.43;12.40;;;3.40;99.90;;;;;;5053443;28;20203;-68
2022/01/16 02:11:15;;;;;;;27.07;12.80;;;3.40;99.90;;;;;;5059244;28;20193;-68
2022/01/16 02:28:04;;;;;;;24.80;10.80;;;3.30;99.90;;;;;;4987619;28;20217;-72
2022/01/16 02:35:45;;;;;;;29.20;11.63;;;3.20;99.90;;;;;;5062043;28;20190;-73
2022/01/16 02:38:12;;;;;;;21.40;10.87;;;3.20;99.90;;;;;;5059201;28;20190;-73
2022/01/16 02:40:43;;;;;;;23.30;11.07;;;3.20;99.90;;;;;;5052315;28;20206;-72
2022/01/16 02:43:10;;;;;;;24.93;10.13;;;3.20;99.90;;;;;;5057059;28;20202;-71
2022/01/16 02:45:44;;;;;;;19.40;9.63;;;3.10;99.90;;;;;;5057421;28;20664;-71
2022/01/16 02:48:11;;;;;;;23.07;9.80;;;3.00;99.90;;;;;;5058503;28;20581;-68
2022/01/16 02:50:38;;;;;;;19.47;9.90;;;3.00;99.90;;;;;;5057315;28;20203;-68
2022/01/16 02:53:10;;;;;;;18.73;9.90;;;3.00;99.90;;;;;;5057275;28;20197;-70
2022/01/16 02:55:41;;;;;;;22.20;9.50;;;3.00;99.90;;;;;;5066139;28;20202;-74
2022/01/16 02:58:08;;;;;;;20.13;9.03;;;2.90;99.90;;;;;;5062837;28;20194;-72
2022/01/16 03:00:36;;;;;;;20.60;9.83;;;2.90;99.90;;;;;;5052597;28;20199;-73
2022/01/16 03:03:03;;;;;;;22.90;9.97;;;3.00;99.90;;;;;;5049069;28;20611;-73
2022/01/16 03:05:31;;;;;;;20.17;9.80;;;3.00;99.90;;;;;;5060035;28;20687;-68
2022/01/16 03:07:57;;;;;;;20.13;9.17;;;3.00;99.90;;;;;;5058712;28;20707;-68
2022/01/16 03:12:52;;;;;;;18.20;9.20;;;3.10;99.90;;;;;;5055223;28;20195;-71
2022/01/16 03:15:20;;;;;;;20.70;9.60;;;3.00;99.90;;;;;;5053661;28;20187;-71
2022/01/16 03:23:15;;;;;;;22.73;9.53;;;3.00;99.90;;;;;;5053669;28;20214;-68
2022/01/16 03:25:42;;;;;;;21.70;9.60;;;2.90;99.90;;;;;;5059532;28;20227;-68
2022/01/16 03:28:09;;;;;;;21.03;10.10;;;2.90;99.90;;;;;;5058298;28;20236;-68
2022/01/16 03:30:36;;;;;;;20.93;9.30;;;2.90;99.90;;;;;;5055773;28;20336;-68
2022/01/16 03:33:03;;;;;;;23.57;10.73;;;2.90;99.90;;;;;;5057005;28;20195;-68
2022/01/16 03:35:31;;;;;;;21.63;9.90;;;2.90;99.90;;;;;;5066456;28;20644;-68
2022/01/16 03:37:57;;;;;;;22.33;9.33;;;2.90;99.90;;;;;;5058252;28;20209;-68
2022/01/16 03:40:25;;;;;;;20.47;9.80;;;2.90;99.90;;;;;;5052287;28;20272;-68
2022/01/16 03:42:52;;;;;;;20.57;9.50;;;2.90;99.90;;;;;;5062803;28;20682;-68
2022/01/16 03:45:19;;;;;;;24.87;10.27;;;2.90;99.90;;;;;;5051276;28;20198;-68
2022/01/16 03:47:46;;;;;;;18.13;9.13;;;3.00;99.90;;;;;;5061937;28;21200;-68
2022/01/16 03:50:12;;;;;;;19.30;8.93;;;2.90;99.90;;;;;;5064592;28;20186;-68
2022/01/16 03:52:39;;;;;;;20.77;9.50;;;3.00;99.90;;;;;;5065617;28;20190;-68
2022/01/16 03:55:07;;;;;;;23.03;10.43;;;2.90;99.90;;;;;;5060256;28;20613;-68
2022/01/16 03:57:36;;;;;;;20.60;10.03;;;3.00;99.90;;;;;;5059656;28;20196;-68
2022/01/16 04:00:08;;;;;;;22.40;10.53;;;2.90;99.90;;;;;;5060971;28;20578;-68
2022/01/16 04:02:35;;;;;;;25.03;10.70;;;2.90;99.90;;;;;;5059213;28;20677;-68
2022/01/16 04:05:02;;;;;;;23.80;10.30;;;2.90;99.90;;;;;;5059903;28;20217;-68
2022/01/16 04:07:35;;;;;;;24.67;10.17;;;2.80;99.90;;;;;;5066433;28;20222;-68
2022/01/16 04:10:07;;;;;;;23.87;9.70;;;2.80;99.90;;;;;;5067049;28;20186;-68
2022/01/16 04:12:37;;;;;;;25.20;9.87;;;2.80;99.90;;;;;;5058726;28;20649;-68
2022/01/16 04:15:51;;;;;;;19.33;9.27;;;2.80;99.90;;;;;;5057726;28;20721;-73
2022/01/16 04:17:59;;;;;;;18.13;8.77;;;2.90;99.90;;;;;;5055049;28;20206;-72
2022/01/16 04:20:25;;;;;;;20.57;8.93;;;3.00;99.90;;;;;;5062320;28;20705;-74
2022/01/16 04:22:52;;;;;;;18.07;9.03;;;3.00;99.90;;;;;;5060314;28;20217;-72
2022/01/16 04:25:19;;;;;;;19.53;8.57;;;3.10;99.90;;;;;;5062026;28;20201;-72
2022/01/16 04:27:47;;;;;;;18.03;8.23;;;3.10;99.90;;;;;;5059977;28;20222;-73
2022/01/16 04:30:14;;;;;;;15.93;8.43;;;3.00;99.90;;;;;;5059933;28;20599;-70
2022/01/16 04:32:40;;;;;;;16.37;8.33;;;3.00;99.90;;;;;;5055840;28;20694;-71
2022/01/16 04:35:07;;;;;;;17.23;7.87;;;3.00;99.90;;;;;;5060560;28;20226;-70
2022/01/16 04:37:34;;;;;;;17.77;8.27;;;3.00;99.90;;;;;;5061389;28;20203;-73
2022/01/16 04:40:03;;;;;;;18.03;8.40;;;3.00;99.90;;;;;;5059849;28;20207;-71
2022/01/16 04:45:16;;;;;;;14.80;8.03;;;3.20;99.90;;;;;;5054657;28;20231;-74
2022/01/16 04:47:43;;;;;;;18.60;8.00;;;3.10;99.90;;;;;;5063858;28;20230;-72
2022/01/16 04:50:13;;;;;;;17.03;8.03;;;3.10;99.90;;;;;;5055800;28;20202;-70
2022/01/16 04:52:42;;;;;;;13.43;7.67;;;3.00;99.90;;;;;;5075928;28;20192;-70
2022/01/16 04:55:09;;;;;;;16.30;8.43;;;3.00;99.90;;;;;;5067421;28;20214;-74
2022/01/16 04:57:37;;;;;;;17.60;8.00;;;2.90;99.90;;;;;;5063855;28;20191;-70
2022/01/16 05:00:07;;;;;;;16.53;8.30;;;3.00;99.90;;;;;;5057296;28;20194;-71
2022/01/16 05:02:34;;;;;;;17.10;7.97;;;2.90;99.90;;;;;;5061244;28;20280;-71
2022/01/16 05:05:01;;;;;;;17.30;7.80;;;2.90;99.90;;;;;;5057543;28;20297;-70
2022/01/16 05:07:27;;;;;;;15.40;7.40;;;2.90;99.90;;;;;;5059921;28;20724;-71
2022/01/16 05:09:54;;;;;;;15.27;8.00;;;3.00;99.90;;;;;;5058088;28;20189;-70
2022/01/16 05:12:30;;;;;;;15.80;7.73;;;3.00;99.90;;;;;;5053233;28;20256;-72
2022/01/16 05:17:42;;;;;;;15.50;7.10;;;2.90;99.90;;;;;;5071340;28;20592;-73
2022/01/16 05:20:10;;;;;;;14.13;7.20;;;2.90;99.90;;;;;;5066197;28;20404;-70
2022/01/16 05:22:36;;;;;;;17.10;8.40;;;3.00;99.90;;;;;;5056414;28;20198;-72
2022/01/16 05:25:08;;;;;;;19.70;8.07;;;3.00;99.90;;;;;;5056039;28;20233;-68
2022/01/16 05:27:35;;;;;;;15.93;7.73;;;3.00;99.90;;;;;;5054462;28;20219;-68
2022/01/16 05:30:02;;;;;;;14.77;7.60;;;3.00;99.90;;;;;;5053510;28;20533;-68
2022/01/16 05:32:29;;;;;;;15.47;8.00;;;3.00;99.90;;;;;;5063703;28;20191;-74
2022/01/16 05:34:56;;;;;;;16.77;7.97;;;3.00;99.90;;;;;;5054245;28;20679;-71
2022/01/16 05:37:23;;;;;;;17.97;7.70;;;2.90;99.90;;;;;;5055524;28;20347;-72
2022/01/16 05:39:50;;;;;;;16.80;7.87;;;3.00;99.90;;;;;;5054838;28;20692;-71
2022/01/16 05:42:19;;;;;;;14.77;7.40;;;3.00;99.90;;;;;;5060102;28;20261;-71
2022/01/16 05:44:46;;;;;;;14.17;6.83;;;3.00;99.90;;;;;;5053230;28;20231;-70
2022/01/16 05:47:13;;;;;;;13.70;7.67;;;3.00;99.90;;;;;;5054671;28;20305;-70
2022/01/16 05:49:41;;;;;;;14.10;7.27;;;3.10;99.90;;;;;;5055920;28;20198;-72
2022/01/16 05:52:08;;;;;;;14.03;7.43;;;3.20;99.90;;;;;;5052647;28;20570;-70
2022/01/16 05:54:35;;;;;;;15.53;7.60;;;3.10;99.90;;;;;;5060503;28;20585;-70
2022/01/16 05:57:02;;;;;;;13.87;6.77;;;2.90;99.90;;;;;;5053677;28;20196;-70
2022/01/16 05:59:29;;;;;;;14.33;6.73;;;2.90;99.90;;;;;;5049396;28;20198;-71
2022/01/16 06:01:55;;;;;;;10.97;6.37;;;2.90;99.90;;;;;;5055814;28;20644;-71
2022/01/16 06:04:22;;;;;;;10.33;5.40;;;2.90;99.90;;;;;;5066055;28;20292;-70
2022/01/16 06:06:52;;;;;;;9.13;5.20;;;2.80;99.90;;;;;;5063204;28;20190;-70
2022/01/16 06:09:18;;;;;;;7.93;4.13;;;2.80;99.90;;;;;;5062514;28;20187;-70
2022/01/16 06:11:45;;;;;;;8.10;4.87;;;2.80;99.90;;;;;;5068812;28;20198;-72
2022/01/16 06:14:12;;;;;;;9.20;4.87;;;2.70;99.90;;;;;;5053532;28;20217;-73
2022/01/16 06:16:38;;;;;;;7.53;4.60;;;2.70;99.90;;;;;;5057388;28;20191;-70
2022/01/16 06:19:05;;;;;;;8.07;5.10;;;2.60;99.90;;;;;;5058064;28;20205;-71
2022/01/16 06:21:32;;;;;;;8.40;5.23;;;2.60;99.90;;;;;;5063275;28;20216;-70
2022/01/16 06:23:59;;;;;;;7.50;4.80;;;2.60;99.90;;;;;;5059562;28;20233;-70
2022/01/16 06:26:25;;;;;;;9.47;5.23;;;2.70;99.90;;;;;;5060969;28;20201;-70
2022/01/16 06:28:52;;;;;;;9.23;5.17;;;2.70;99.90;;;;;;5062305;28;20218;-70
2022/01/16 06:31:19;;;;;;;9.77;5.23;;;2.70;99.90;;;;;;5057810;28;20663;-72
2022/01/16 06:33:46;;;;;;;8.47;5.50;;;2.70;99.90;;;;;;5058581;28;20244;-70
2022/01/16 06:36:13;;;;;;;10.63;5.73;;;2.80;99.90;;;;;;5053735;28;20190;-67
2022/01/16 06:38:40;;;;;;;10.13;6.13;;;2.90;99.90;;;;;;5055602;28;20716;-68
2022/01/16 06:41:06;;;;;;;10.40;6.50;;;3.00;99.90;;;;;;5055115;28;20224;-68
2022/01/16 06:43:33;;;;;;;14.17;6.90;;;3.10;99.90;;;;;;5057272;28;20226;-67
2022/01/16 06:46:00;;;;;;;11.13;6.53;;;3.20;99.90;;;;;;5051543;28;20207;-67
2022/01/16 06:48:28;;;;;;;11.63;6.87;;;3.10;99.90;;;;;;5077236;28;20775;-68
2022/01/16 06:50:55;;;;;;;14.03;7.40;;;3.10;99.90;;;;;;5071092;28;20194;-67
2022/01/16 06:53:22;;;;;;;11.33;6.87;;;3.20;99.90;;;;;;5057858;28;20227;-68
2022/01/16 06:55:48;;;;;;;10.80;6.17;;;3.20;99.90;;;;;;5060239;28;20657;-68
2022/01/16 06:58:15;;;;;;;13.63;6.67;;;3.10;99.90;;;;;;5062990;28;20229;-68
2022/01/16 07:00:42;;;;;;;12.40;6.83;;;3.10;99.90;;;;;;5060756;28;20671;-68
2022/01/16 07:03:09;;;;;;;12.37;7.00;;;3.20;99.90;;;;;;5055465;28;20207;-68
2022/01/16 07:05:36;;;;;;;12.07;6.57;;;3.20;99.90;;;;;;5061639;28;20247;-68
2022/01/16 07:08:02;;;;;;;13.00;7.50;;;3.20;99.90;;;;;;5060367;28;20630;-67
2022/01/16 07:10:29;;;;;;;13.77;6.90;;;3.30;99.90;;;;;;5057539;28;20199;-68
2022/01/16 07:12:56;;;;;;;13.23;6.83;;;3.10;99.90;;;;;;5060525;28;20197;-68
2022/01/16 07:15:23;;;;;;;11.70;6.73;;;3.10;99.90;;;;;;5061824;28;20279;-68
2022/01/16 07:17:49;;;;;;;12.13;7.17;;;3.10;99.90;;;;;;5064046;28;20202;-67
2022/01/16 07:20:16;;;;;;;13.17;7.10;;;3.20;99.90;;;;;;5064713;28;20319;-67
2022/01/16 07:22:44;;;;;;;15.73;7.77;;;3.20;99.90;;;;;;5058804;28;20194;-67
2022/01/16 07:25:12;;;;;;;13.23;7.50;;;3.20;99.90;;;;;;5065694;28;20217;-68
2022/01/16 07:27:40;;;;;;;16.20;7.33;;;3.20;99.90;;;;;;5052327;28;20229;-67
2022/01/16 07:30:08;;;;;;;17.03;8.43;;;3.10;99.90;;;;;;5056669;28;20191;-68
2022/01/16 07:32:35;;;;;;;16.43;8.20;;;3.20;99.90;;;;;;5060448;28;20215;-68
2022/01/16 07:35:03;;;;;;;17.33;8.60;;;3.20;99.90;;;;;;5059205;28;20245;-68
2022/01/16 07:37:49;;;;;;;16.10;7.90;;;3.10;99.90;;;;;;5063819;28;20215;-68
2022/01/16 07:40:16;;;;;;;15.60;8.20;;;3.10;99.90;;;;;;5057272;28;20241;-68
2022/01/16 07:42:43;;;;;;;18.43;8.93;;;3.20;99.90;;;;;;5063920;28;20232;-68
2022/01/16 07:45:10;;;;;;;18.37;8.33;;;3.10;99.90;;;;;;5060170;28;20217;-68
2022/01/16 07:47:37;;;;;;;19.20;9.13;;;3.10;99.90;;;;;;5064455;28;20198;-68
2022/01/16 07:50:05;;;;;;;19.80;9.50;;;3.10;99.90;;;;;;5059774;28;20561;-68
2022/01/16 07:52:47;;;;;;;17.13;8.80;;;3.10;99.90;;;;;;5053067;28;20210;-68
2022/01/16 07:55:15;;;;;;;19.67;9.83;;;3.10;99.90;;;;;;5061309;28;20475;-68
2022/01/16 07:57:41;;;;;;;20.33;9.00;;;3.20;99.90;;;;;;5052210;28;20202;-71
2022/01/16 08:00:28;;;;;;;22.00;10.13;;;3.10;99.90;;;;;;5056476;28;20203;-71
2022/01/16 08:02:57;;;;;;;21.43;10.03;;;3.20;99.90;;;;;;5059806;28;20210;-72
2022/01/16 08:05:24;;;;;;;22.43;10.73;;;3.30;99.90;;;;;;5063864;28;20195;-71
2022/01/16 08:07:51;;;;;;;21.70;10.67;;;3.30;99.90;;;;;;5060284;28;20254;-73
2022/01/16 08:10:18;;;;;;;22.53;10.27;;;3.30;99.90;;;;;;5057655;28;20209;-71
2022/01/16 08:12:45;;;;;;;22.10;10.07;;;3.30;99.90;;;;;;5059476;28;20192;-72
2022/01/16 08:15:12;;;;;;;21.43;9.93;;;3.30;99.90;;;;;;5048761;28;20417;-71
2022/01/16 08:17:38;;;;;;;22.97;11.20;;;3.30;99.90;;;;;;5065406;28;20186;-73
2022/01/16 08:20:08;;;;;;;25.17;11.27;;;3.30;99.90;;;;;;5047656;28;20191;-68
2022/01/16 08:22:36;;;;;;;22.33;10.43;;;3.40;99.90;;;;;;5059948;28;20198;-68
2022/01/16 08:25:04;;;;;;;24.07;10.90;;;3.40;99.90;;;;;;5063008;28;20218;-71
2022/01/16 08:27:31;;;;;;;23.70;10.93;;;3.40;99.90;;;;;;5064541;28;20194;-71
2022/01/16 08:30:06;;;;;;;23.90;11.50;;;3.30;99.90;;;;;;5056595;28;20287;-74
2022/01/16 08:32:32;;;;;;;24.83;11.60;;;3.30;99.90;;;;;;5058406;28;20566;-71
2022/01/16 08:35:00;;;;;;;26.97;11.67;;;3.30;99.90;;;;;;5057524;28;20340;-72
2022/01/16 08:37:27;;;;;;;23.70;11.47;;;3.30;99.90;;;;;;5067001;28;20191;-71
2022/01/16 08:39:54;;;;;;;21.77;11.50;;;3.50;99.90;;;;;;5066938;28;20206;-70
2022/01/16 08:42:20;;;;;;;24.17;10.57;;;3.50;99.90;;;;;;5056845;28;20202;-69
2022/01/16 08:44:59;;;;;;;24.57;11.97;;;3.50;99.90;;;;;;5062936;28;20227;-69
2022/01/16 08:47:31;;;;;;;26.63;12.17;;;3.40;99.90;;;;;;5059168;28;20204;-71
2022/01/16 08:49:58;;;;;;;28.40;13.13;;;3.50;99.90;;;;;;5060869;28;20233;-70
2022/01/16 08:52:28;;;;;;;27.50;12.60;;;3.50;99.90;;;;;;5060196;28;20583;-70
2022/01/16 08:54:55;;;;;;;24.27;12.07;;;3.70;99.90;;;;;;5064182;28;20935;-70
2022/01/16 08:57:21;;;;;;;21.07;10.70;;;3.70;99.90;;;;;;5056807;28;20206;-69
2022/01/16 08:59:48;;;;;;;25.43;12.03;;;3.70;99.90;;;;;;5058162;28;20707;-70
2022/01/16 09:02:16;;;;;;;24.53;12.10;;;3.80;99.90;;;;;;5066600;28;20560;-69
2022/01/16 09:04:43;;;;;;;24.27;11.47;;;3.80;99.90;;;;;;5073256;28;20613;-71
2022/01/16 09:07:09;;;;;;;26.90;12.10;;;3.90;99.90;;;;;;5059952;28;20206;-70
2022/01/16 09:09:36;;;;;;;25.77;12.23;;;4.00;99.90;;;;;;5059480;28;20705;-69
2022/01/16 09:12:03;;;;;;;28.97;12.40;;;4.00;99.90;;;;;;5058126;28;20192;-70
2022/01/16 09:14:30;;;;;;;26.57;11.90;;;4.10;99.90;;;;;;5059659;28;20249;-70
2022/01/16 09:16:56;;;;;;;24.67;12.10;;;4.30;99.90;;;;;;5060963;28;20205;-69
2022/01/16 09:19:23;;;;;;;26.00;13.00;;;4.30;99.90;;;;;;5059079;28;20200;-69
2022/01/16 09:21:50;;;;;;;31.20;13.20;;;4.40;99.90;;;;;;5055691;28;20212;-69
2022/01/16 09:24:16;;;;;;;25.13;12.30;;;4.50;99.90;;;;;;5069510;28;20690;-71
2022/01/16 09:26:43;;;;;;;27.30;11.77;;;4.70;99.90;;;;;;5053924;28;20224;-70
2022/01/16 09:29:10;;;;;;;26.10;12.50;;;4.60;99.90;;;;;;5064905;28;20232;-69
2022/01/16 09:31:36;;;;;;;28.73;12.27;;;4.70;99.90;;;;;;5060638;28;20187;-71
2022/01/16 09:34:04;;;;;;;28.60;12.23;;;4.70;99.90;;;;;;5060561;28;20237;-72
2022/01/16 09:36:30;;;;;;;30.70;13.07;;;4.50;99.90;;;;;;5062775;28;20202;-70
2022/01/16 09:38:57;;;;;;;26.43;11.83;;;4.40;99.90;;;;;;5053384;28;20207;-69
2022/01/16 09:41:24;;;;;;;29.80;11.60;;;4.40;99.90;;;;;;5067298;28;20202;-67
2022/01/16 09:43:51;;;;;;;27.53;12.13;;;4.50;99.90;;;;;;5058077;28;20238;-66
2022/01/16 09:46:18;;;;;;;25.10;11.13;;;4.50;99.90;;;;;;5057075;28;20194;-67
2022/01/16 09:48:45;;;;;;;25.17;10.93;;;4.50;99.90;;;;;;5060154;28;20237;-67
2022/01/16 09:51:11;;;;;;;24.10;11.50;;;4.60;99.90;;;;;;5058952;28;20196;-67
2022/01/16 09:53:42;;;;;;;29.60;11.80;;;4.70;99.90;;;;;;5056087;28;20219;-66
2022/01/16 09:56:10;;;;;;;27.07;10.40;;;4.70;99.90;;;;;;5059832;28;20190;-67
2022/01/16 09:58:38;;;;;;;25.50;11.70;;;4.60;99.90;;;;;;5062294;28;20198;-66
2022/01/16 10:01:05;;;;;;;26.03;11.47;;;4.50;99.90;;;;;;5055550;28;20191;-69
2022/01/16 10:03:45;;;;;;;23.87;10.80;;;4.50;99.90;;;;;;5061280;28;20280;-69
2022/01/16 10:06:17;;;;;;;26.00;11.67;;;4.50;99.90;;;;;;5061738;28;20248;-69
2022/01/16 10:08:44;;;;;;;24.60;11.03;;;4.50;99.90;;;;;;5061935;28;20222;-69
2022/01/16 10:11:43;;;;;;;26.90;10.93;;;4.50;99.90;;;;;;5075386;28;20192;-71
2022/01/16 10:14:45;;;;;;;23.77;10.83;;;4.50;99.90;;;;;;5057072;28;20214;-72
2022/01/16 10:17:20;;;;;;;22.37;10.47;;;4.50;99.90;;;;;;5059232;28;20538;-71
2022/01/16 10:19:59;;;;;;;27.57;10.67;;;4.40;99.90;;;;;;5062891;28;20202;-71
2022/01/16 10:22:38;;;;;;;24.67;10.73;;;4.30;99.90;;;;;;5060006;28;20568;-71
2022/01/16 10:25:07;;;;;;;24.20;10.67;;;4.40;99.90;;;;;;5067868;28;20220;-71
2022/01/16 10:27:35;;;;;;;21.93;9.80;;;4.20;99.90;;;;;;5062338;28;20217;-70
2022/01/16 10:30:07;;;;;;;23.80;10.13;;;4.10;99.90;;;;;;5060052;28;20227;-70
2022/01/16 10:32:42;;;;;;;23.07;10.33;;;4.20;99.90;;;;;;5077714;28;20200;-70
2022/01/16 10:35:23;;;;;;;21.47;10.17;;;4.10;99.90;;;;;;5068197;28;20233;-72
2022/01/16 10:37:57;;;;;;;20.73;10.00;;;4.10;99.90;;;;;;5068671;28;20201;-73
2022/01/16 10:40:32;;;;;;;25.70;10.70;;;4.00;99.90;;;;;;5065231;28;20867;-69
2022/01/16 10:43:05;;;;;;;21.30;9.53;;;4.00;99.90;;;;;;5078134;28;20198;-68
2022/01/16 10:45:34;;;;;;;24.03;10.63;;;4.00;99.90;;;;;;5058061;28;20199;-69
2022/01/16 10:48:03;;;;;;;22.97;10.13;;;4.00;99.90;;;;;;5064028;28;20204;-68
2022/01/16 10:50:30;;;;;;;23.63;10.60;;;4.00;99.90;;;;;;5065572;28;20224;-69
2022/01/16 10:53:04;;;;;;;23.13;10.70;;;3.90;99.90;;;;;;5061610;28;20200;-67
2022/01/16 10:55:51;;;;;;;24.07;10.57;;;3.90;99.90;;;;;;5068474;28;20201;-67
2022/01/16 10:58:22;;;;;;;24.43;10.40;;;4.00;99.90;;;;;;5060747;28;20198;-67
2022/01/16 11:00:53;;;;;;;22.47;10.43;;;4.10;99.90;;;;;;5061677;28;20725;-67
2022/01/16 11:03:22;;;;;;;22.00;10.57;;;4.00;99.90;;;;;;5055377;28;20229;-67
2022/01/16 11:05:50;;;;;;;22.50;10.13;;;3.90;99.90;;;;;;5067171;28;20209;-67
2022/01/16 11:08:20;;;;;;;25.47;11.10;;;4.00;99.90;;;;;;5054968;28;20203;-67
2022/01/16 11:10:54;;;;;;;23.07;10.37;;;4.10;99.90;;;;;;5062774;28;20570;-67
2022/01/16 11:13:23;;;;;;;21.17;9.53;;;4.10;99.90;;;;;;5057722;28;20214;-67
2022/01/16 11:15:52;;;;;;;21.37;9.93;;;4.30;99.90;;;;;;5059807;28;20192;-66
2022/01/16 11:18:21;;;;;;;22.03;9.87;;;4.40;99.90;;;;;;5062224;28;20253;-67
2022/01/16 11:20:57;;;;;;;23.53;10.80;;;4.40;99.90;;;;;;5047734;28;20674;-67
2022/01/16 11:23:46;;;;;;;21.83;11.00;;;4.50;99.90;;;;;;5056984;28;20208;-67
2022/01/16 11:26:14;;;;;;;23.20;10.07;;;4.60;99.90;;;;;;5058966;28;20200;-67
2022/01/16 11:28:41;;;;;;;21.50;10.30;;;4.60;99.90;;;;;;5058489;28;20231;-67
2022/01/16 11:31:11;;;;;;;22.87;10.33;;;4.60;99.90;;;;;;5058352;28;20251;-67
2022/01/16 11:33:39;;;;;;;23.87;10.30;;;4.60;99.90;;;;;;5058271;28;20211;-67
2022/01/16 11:36:12;;;;;;;22.20;9.93;;;4.50;99.90;;;;;;5064436;28;20205;-67
2022/01/16 11:38:58;;;;;;;22.20;10.43;;;4.60;99.90;;;;;;5063710;28;20662;-67
2022/01/16 11:41:34;;;;;;;21.80;9.77;;;4.50;99.90;;;;;;5067574;28;20192;-67
2022/01/16 11:44:08;;;;;;;21.07;9.90;;;4.60;99.90;;;;;;5073623;28;20217;-67
2022/01/16 11:46:41;;;;;;;20.40;10.20;;;4.60;99.90;;;;;;5053495;28;20716;-64
2022/01/16 11:49:13;;;;;;;21.87;9.83;;;4.60;99.90;;;;;;5059310;28;20793;-65
2022/01/16 11:51:40;;;;;;;21.60;10.40;;;4.70;99.90;;;;;;5057329;28;20198;-65
2022/01/16 11:54:23;;;;;;;19.83;10.50;;;4.90;99.90;;;;;;5063380;28;20214;-65
2022/01/16 11:56:51;;;;;;;23.23;10.47;;;4.90;99.90;;;;;;5064664;28;20194;-65
2022/01/16 11:59:28;;;;;;;21.27;9.90;;;4.90;99.90;;;;;;5060059;28;20194;-69
2022/01/16 12:02:05;;;;;;;25.80;11.33;;;4.90;99.90;;;;;;5060127;28;20226;-68
2022/01/16 12:04:32;;;;;;;22.47;10.40;;;5.00;99.90;;;;;;5055840;28;20214;-69
2022/01/16 12:07:17;;;;;;;21.27;9.93;;;5.20;99.90;;;;;;5075599;28;20194;-72
2022/01/16 12:12:16;;;;;;;21.43;9.97;;;5.70;99.90;;;;;;5059100;28;20206;-65
2022/01/16 12:14:59;;;;;;;22.30;10.27;;;5.70;99.90;;;;;;5056997;28;20211;-67
2022/01/16 12:17:48;;;;;;;23.40;10.93;;;5.90;99.90;;;;;;5064303;28;20191;-69
2022/01/16 12:20:15;;;;;;;21.20;10.53;;;5.90;99.90;;;;;;5069656;28;20213;-68
2022/01/16 12:22:43;;;;;;;23.37;10.40;;;5.90;99.90;;;;;;5069494;28;20567;-68
2022/01/16 12:25:34;;;;;;;20.83;9.40;;;6.00;99.90;;;;;;5059591;28;20221;-68
2022/01/16 12:28:08;;;;;;;22.27;10.60;;;6.10;99.90;;;;;;5069749;28;20198;-69
2022/01/16 12:30:58;;;;;;;24.40;11.40;;;6.40;99.90;;;;;;5070323;28;20214;-68
2022/01/16 12:33:50;;;;;;;19.93;9.57;;;6.70;99.90;;;;;;5071158;28;20215;-68
2022/01/16 12:36:18;;;;;;;20.27;9.63;;;6.70;99.90;;;;;;5067085;28;20198;-67
2022/01/16 12:38:51;;;;;;;23.47;10.53;;;6.60;99.90;;;;;;5081127;28;20203;-67
2022/01/16 12:41:23;;;;;;;21.60;10.23;;;6.70;99.90;;;;;;5057955;28;20195;-67
2022/01/16 12:43:52;;;;;;;20.67;9.47;;;6.70;99.90;;;;;;5054776;28;20713;-68
2022/01/16 12:46:32;;;;;;;20.60;10.40;;;6.80;99.90;;;;;;5056304;28;20235;-67
2022/01/16 12:49:04;;;;;;;23.23;10.13;;;6.60;99.90;;;;;;5065770;28;20514;-67
2022/01/16 12:51:33;;;;;;;21.13;9.87;;;6.60;99.90;;;;;;5064776;28;20652;-68
2022/01/16 12:54:06;;;;;;;20.63;9.80;;;6.60;99.90;;;;;;5054336;28;20222;-68
2022/01/16 12:56:35;;;;;;;25.57;11.43;;;6.40;99.90;;;;;;5059167;28;20218;-68
2022/01/16 12:59:05;;;;;;;19.23;9.50;;;6.40;99.90;;;;;;5068256;28;20195;-67
2022/01/16 13:01:33;;;;;;;20.67;10.13;;;6.20;99.90;;;;;;5069266;28;20217;-67
2022/01/16 13:04:19;;;;;;;19.37;9.10;;;6.20;99.90;;;;;;5063410;28;20217;-70
2022/01/16 13:06:47;;;;;;;19.83;9.83;;;6.30;99.90;;;;;;5070865;28;20201;-67
2022/01/16 13:09:14;;;;;;;20.60;9.40;;;6.20;99.90;;;;;;5070947;28;20225;-67
2022/01/16 13:11:45;;;;;;;19.00;8.97;;;6.20;99.90;;;;;;5067960;28;20195;-66
2022/01/16 13:14:15;;;;;;;19.23;9.03;;;6.10;99.90;;;;;;5062183;28;20207;-68
2022/01/16 13:16:44;;;;;;;18.57;9.03;;;6.00;99.90;;;;;;5061996;28;20576;-67
2022/01/16 13:19:18;;;;;;;22.00;10.00;;;6.00;99.90;;;;;;5074811;28;20656;-68
2022/01/16 13:21:56;;;;;;;20.83;9.57;;;5.90;99.90;;;;;;5063018;28;20205;-68
2022/01/16 13:24:24;;;;;;;23.67;10.30;;;6.00;99.90;;;;;;5063222;28;20703;-68
2022/01/16 13:26:51;;;;;;;20.33;9.53;;;5.90;99.90;;;;;;5071744;28;20565;-68
2022/01/16 13:29:20;;;;;;;19.87;10.37;;;5.90;99.90;;;;;;5065357;28;20585;-67
2022/01/16 13:31:48;;;;;;;22.83;9.67;;;6.00;99.90;;;;;;5070351;28;20213;-67
2022/01/16 13:34:33;;;;;;;19.07;9.30;;;5.90;99.90;;;;;;5070555;28;20214;-68
2022/01/16 13:37:00;;;;;;;17.97;9.63;;;6.00;99.90;;;;;;5070991;28;20194;-68
2022/01/16 13:39:45;;;;;;;21.73;9.80;;;6.00;99.90;;;;;;5067037;28;20198;-68
2022/01/16 13:42:38;;;;;;;23.93;10.00;;;6.00;99.90;;;;;;5064356;28;20206;-68